sensor_id;sensor_type;location;lat;lon;timestamp;temperature;humidity
26378;DHT22;14078;50.974;6.786;2023-05-07T00:01:03;14.50;99.90
26378;DHT22;14078;50.974;6.786;2023-05-07T00:03:31;14.40;99.90
26378;DHT22;14078;50.974;6.786;2023-05-07T00:05:57;14.40;99.90
26378;DHT22;14078;50.974;6.786;2023-05-07T00:08:24;14.30;99.90
26378;DHT22;14078;50.974;6.786;2023-05-07T00:10:52;14.30;99.90
26378;DHT22;14078;50.974;6.786;2023-05-07T00:13:18;14.30;99.90
26378;DHT22;14078;50.974;6.786;2023-05-07T00:15:45;14.30;99.90
26378;DHT22;14078;50.974;6.786;2023-05-07T00:18:11;14.30;99.90
26378;DHT22;14078;50.974;6.786;2023-05-07T00:20:38;14.20;99.90
26378;DHT22;14078;50.974;6.786;2023-05-07T00:23:04;14.30;99.90
26378;DHT22;14078;50.974;6.786;2023-05-07T00:25:31;14.30;99.90
26378;DHT22;14078;50.974;6.786;2023-05-07T00:27:58;14.30;99.90
26378;DHT22;14078;50.974;6.786;2023-05-07T00:30:28;14.20;99.90
26378;DHT22;14078;50.974;6.786;2023-05-07T00:32:55;14.20;99.90
26378;DHT22;14078;50.974;6.786;2023-05-07T00:35:22;14.20;99.90
26378;DHT22;14078;50.974;6.786;2023-05-07T00:37:48;14.10;99.90
26378;DHT22;14078;50.974;6.786;2023-05-07T00:40:15;14.10;99.90
26378;DHT22;14078;50.974;6.786;2023-05-07T00:42:41;14.10;99.90
26378;DHT22;14078;50.974;6.786;2023-05-07T00:45:13;14.00;99.90
26378;DHT22;14078;50.974;6.786;2023-05-07T00:47:40;13.90;99.90
26378;DHT22;14078;50.974;6.786;2023-05-07T00:50:07;14.00;99.90
26378;DHT22;14078;50.974;6.786;2023-05-07T00:52:36;13.90;99.90
26378;DHT22;14078;50.974;6.786;2023-05-07T00:55:04;13.90;99.90
26378;DHT22;14078;50.974;6.786;2023-05-07T00:57:32;13.80;99.90
26378;DHT22;14078;50.974;6.786;2023-05-07T00:59:59;13.90;99.90
26378;DHT22;14078;50.974;6.786;2023-05-07T01:02:27;13.90;99.90
26378;DHT22;14078;50.974;6.786;2023-05-07T01:04:53;13.90;99.90
26378;DHT22;14078;50.974;6.786;2023-05-07T01:07:21;13.80;99.90
26378;DHT22;14078;50.974;6.786;2023-05-07T01:09:48;13.90;99.90
26378;DHT22;14078;50.974;6.786;2023-05-07T01:12:14;13.90;99.90
26378;DHT22;14078;50.974;6.786;2023-05-07T01:14:41;13.90;99.90
26378;DHT22;14078;50.974;6.786;2023-05-07T01:17:08;13.90;99.90
26378;DHT22;14078;50.974;6.786;2023-05-07T01:19:36;14.00;99.90
26378;DHT22;14078;50.974;6.786;2023-05-07T01:22:03;14.10;99.90
26378;DHT22;14078;50.974;6.786;2023-05-07T01:24:32;14.20;99.90
26378;DHT22;14078;50.974;6.786;2023-05-07T01:26:59;14.30;99.90
26378;DHT22;14078;50.974;6.786;2023-05-07T01:29:26;14.20;99.90
26378;DHT22;14078;50.974;6.786;2023-05-07T01:31:53;14.20;99.90
26378;DHT22;14078;50.974;6.786;2023-05-07T01:34:19;14.20;99.90
26378;DHT22;14078;50.974;6.786;2023-05-07T01:36:47;14.10;99.90
26378;DHT22;14078;50.974;6.786;2023-05-07T01:39:14;14.10;99.90
26378;DHT22;14078;50.974;6.786;2023-05-07T01:41:42;14.10;99.90
26378;DHT22;14078;50.974;6.786;2023-05-07T01:44:10;14.10;99.90
26378;DHT22;14078;50.974;6.786;2023-05-07T01:46:38;14.00;99.90
26378;DHT22;14078;50.974;6.786;2023-05-07T01:49:05;14.10;99.90
26378;DHT22;14078;50.974;6.786;2023-05-07T01:51:31;14.00;99.90
26378;DHT22;14078;50.974;6.786;2023-05-07T01:53:59;14.00;99.90
26378;DHT22;14078;50.974;6.786;2023-05-07T01:56:25;14.00;99.90
26378;DHT22;14078;50.974;6.786;2023-05-07T01:58:53;14.10;99.90
26378;DHT22;14078;50.974;6.786;2023-05-07T02:01:19;14.00;99.90
26378;DHT22;14078;50.974;6.786;2023-05-07T02:03:46;14.10;99.90
26378;DHT22;14078;50.974;6.786;2023-05-07T02:06:13;14.00;99.90
26378;DHT22;14078;50.974;6.786;2023-05-07T02:08:39;14.00;99.90
26378;DHT22;14078;50.974;6.786;2023-05-07T02:11:06;13.90;99.90
26378;DHT22;14078;50.974;6.786;2023-05-07T02:13:33;13.80;99.90
26378;DHT22;14078;50.974;6.786;2023-05-07T02:16:01;13.80;99.90
26378;DHT22;14078;50.974;6.786;2023-05-07T02:18:28;13.70;99.90
26378;DHT22;14078;50.974;6.786;2023-05-07T02:20:55;13.70;99.90
26378;DHT22;14078;50.974;6.786;2023-05-07T02:23:21;13.70;99.90
26378;DHT22;14078;50.974;6.786;2023-05-07T02:25:48;13.70;99.90
26378;DHT22;14078;50.974;6.786;2023-05-07T02:28:14;13.60;99.90
26378;DHT22;14078;50.974;6.786;2023-05-07T02:30:41;13.60;99.90
26378;DHT22;14078;50.974;6.786;2023-05-07T02:33:08;13.50;99.90
26378;DHT22;14078;50.974;6.786;2023-05-07T02:35:37;13.40;99.90
26378;DHT22;14078;50.974;6.786;2023-05-07T02:38:04;13.30;99.90
26378;DHT22;14078;50.974;6.786;2023-05-07T02:40:30;13.30;99.90
26378;DHT22;14078;50.974;6.786;2023-05-07T02:42:58;13.40;99.90
26378;DHT22;14078;50.974;6.786;2023-05-07T02:45:25;13.30;99.90
26378;DHT22;14078;50.974;6.786;2023-05-07T02:47:51;13.30;99.90
26378;DHT22;14078;50.974;6.786;2023-05-07T02:50:19;13.30;99.90
26378;DHT22;14078;50.974;6.786;2023-05-07T02:52:46;13.30;99.90
26378;DHT22;14078;50.974;6.786;2023-05-07T02:55:13;13.30;99.90
26378;DHT22;14078;50.974;6.786;2023-05-07T02:57:39;13.30;99.90
26378;DHT22;14078;50.974;6.786;2023-05-07T03:00:12;13.30;99.90
26378;DHT22;14078;50.974;6.786;2023-05-07T03:02:39;13.20;99.90
26378;DHT22;14078;50.974;6.786;2023-05-07T03:05:06;13.20;99.90
26378;DHT22;14078;50.974;6.786;2023-05-07T03:07:34;13.20;99.90
26378;DHT22;14078;50.974;6.786;2023-05-07T03:10:00;13.10;99.90
26378;DHT22;14078;50.974;6.786;2023-05-07T03:12:27;13.10;99.90
26378;DHT22;14078;50.974;6.786;2023-05-07T03:14:54;13.20;99.90
26378;DHT22;14078;50.974;6.786;2023-05-07T03:17:20;13.20;99.90
26378;DHT22;14078;50.974;6.786;2023-05-07T03:19:47;13.20;99.90
26378;DHT22;14078;50.974;6.786;2023-05-07T03:22:13;13.10;99.90
26378;DHT22;14078;50.974;6.786;2023-05-07T03:24:41;13.10;99.90
26378;DHT22;14078;50.974;6.786;2023-05-07T03:27:08;13.10;99.90
26378;DHT22;14078;50.974;6.786;2023-05-07T03:29:34;13.10;99.90
26378;DHT22;14078;50.974;6.786;2023-05-07T03:32:01;13.10;99.90
26378;DHT22;14078;50.974;6.786;2023-05-07T03:34:27;13.20;99.90
26378;DHT22;14078;50.974;6.786;2023-05-07T03:36:54;13.20;99.90
26378;DHT22;14078;50.974;6.786;2023-05-07T03:39:21;13.30;99.90
26378;DHT22;14078;50.974;6.786;2023-05-07T03:41:49;13.40;99.90
26378;DHT22;14078;50.974;6.786;2023-05-07T03:44:16;13.30;99.90
26378;DHT22;14078;50.974;6.786;2023-05-07T03:46:42;13.30;99.90
26378;DHT22;14078;50.974;6.786;2023-05-07T03:49:09;13.20;99.90
26378;DHT22;14078;50.974;6.786;2023-05-07T03:51:35;13.10;99.90
26378;DHT22;14078;50.974;6.786;2023-05-07T03:54:02;13.10;99.90
26378;DHT22;14078;50.974;6.786;2023-05-07T03:56:28;13.10;99.90
26378;DHT22;14078;50.974;6.786;2023-05-07T03:58:57;13.10;99.90
26378;DHT22;14078;50.974;6.786;2023-05-07T04:01:24;13.00;99.90
26378;DHT22;14078;50.974;6.786;2023-05-07T04:03:51;13.00;99.90
26378;DHT22;14078;50.974;6.786;2023-05-07T04:06:17;13.10;99.90
26378;DHT22;14078;50.974;6.786;2023-05-07T04:08:44;13.20;99.90
26378;DHT22;14078;50.974;6.786;2023-05-07T04:11:10;13.30;99.90
26378;DHT22;14078;50.974;6.786;2023-05-07T04:13:37;13.40;99.90
26378;DHT22;14078;50.974;6.786;2023-05-07T04:16:05;13.40;99.90
26378;DHT22;14078;50.974;6.786;2023-05-07T04:18:31;13.50;99.90
26378;DHT22;14078;50.974;6.786;2023-05-07T04:20:58;13.40;99.90
26378;DHT22;14078;50.974;6.786;2023-05-07T04:23:24;13.40;99.90
26378;DHT22;14078;50.974;6.786;2023-05-07T04:25:51;13.50;99.90
26378;DHT22;14078;50.974;6.786;2023-05-07T04:28:18;13.50;99.90
26378;DHT22;14078;50.974;6.786;2023-05-07T04:30:44;13.50;99.90
26378;DHT22;14078;50.974;6.786;2023-05-07T04:33:13;13.50;99.90
26378;DHT22;14078;50.974;6.786;2023-05-07T04:35:40;13.50;99.90
26378;DHT22;14078;50.974;6.786;2023-05-07T04:38:06;13.50;99.90
26378;DHT22;14078;50.974;6.786;2023-05-07T04:40:33;13.50;99.90
26378;DHT22;14078;50.974;6.786;2023-05-07T04:43:01;13.50;99.90
26378;DHT22;14078;50.974;6.786;2023-05-07T04:45:28;13.50;99.90
26378;DHT22;14078;50.974;6.786;2023-05-07T04:47:54;13.60;99.90
26378;DHT22;14078;50.974;6.786;2023-05-07T04:50:22;13.60;99.90
26378;DHT22;14078;50.974;6.786;2023-05-07T04:52:49;13.80;99.90
26378;DHT22;14078;50.974;6.786;2023-05-07T04:55:16;13.90;99.90
26378;DHT22;14078;50.974;6.786;2023-05-07T04:57:42;14.00;99.90
26378;DHT22;14078;50.974;6.786;2023-05-07T05:00:09;14.00;99.90
26378;DHT22;14078;50.974;6.786;2023-05-07T05:02:36;14.10;99.90
26378;DHT22;14078;50.974;6.786;2023-05-07T05:05:02;14.20;99.90
26378;DHT22;14078;50.974;6.786;2023-05-07T05:07:30;14.10;99.90
26378;DHT22;14078;50.974;6.786;2023-05-07T05:09:57;14.10;99.90
26378;DHT22;14078;50.974;6.786;2023-05-07T05:12:23;14.00;99.90
26378;DHT22;14078;50.974;6.786;2023-05-07T05:14:50;14.00;99.90
26378;DHT22;14078;50.974;6.786;2023-05-07T05:17:16;13.90;99.90
26378;DHT22;14078;50.974;6.786;2023-05-07T05:19:43;14.00;99.90
26378;DHT22;14078;50.974;6.786;2023-05-07T05:22:09;14.00;99.90
26378;DHT22;14078;50.974;6.786;2023-05-07T05:24:37;14.00;99.90
26378;DHT22;14078;50.974;6.786;2023-05-07T05:27:05;14.00;99.90
26378;DHT22;14078;50.974;6.786;2023-05-07T05:29:31;14.20;99.90
26378;DHT22;14078;50.974;6.786;2023-05-07T05:31:58;14.30;99.90
26378;DHT22;14078;50.974;6.786;2023-05-07T05:34:24;14.30;99.90
26378;DHT22;14078;50.974;6.786;2023-05-07T05:36:51;14.30;99.90
26378;DHT22;14078;50.974;6.786;2023-05-07T05:39:17;14.30;99.90
26378;DHT22;14078;50.974;6.786;2023-05-07T05:41:45;14.30;99.90
26378;DHT22;14078;50.974;6.786;2023-05-07T05:44:12;14.40;99.90
26378;DHT22;14078;50.974;6.786;2023-05-07T05:46:38;14.50;99.90
26378;DHT22;14078;50.974;6.786;2023-05-07T05:49:05;14.40;99.90
26378;DHT22;14078;50.974;6.786;2023-05-07T05:51:32;14.40;99.90
26378;DHT22;14078;50.974;6.786;2023-05-07T05:53:58;14.40;99.90
26378;DHT22;14078;50.974;6.786;2023-05-07T05:56:25;14.40;99.90
26378;DHT22;14078;50.974;6.786;2023-05-07T05:58:53;14.40;99.90
26378;DHT22;14078;50.974;6.786;2023-05-07T06:01:19;14.40;99.90
26378;DHT22;14078;50.974;6.786;2023-05-07T06:03:46;14.40;99.90
26378;DHT22;14078;50.974;6.786;2023-05-07T06:06:12;14.50;99.90
26378;DHT22;14078;50.974;6.786;2023-05-07T06:08:40;14.70;99.90
26378;DHT22;14078;50.974;6.786;2023-05-07T06:11:07;14.70;99.90
26378;DHT22;14078;50.974;6.786;2023-05-07T06:13:33;14.80;99.90
26378;DHT22;14078;50.974;6.786;2023-05-07T06:16:01;14.90;99.90
26378;DHT22;14078;50.974;6.786;2023-05-07T06:18:28;15.00;99.90
26378;DHT22;14078;50.974;6.786;2023-05-07T06:20:54;15.20;99.90
26378;DHT22;14078;50.974;6.786;2023-05-07T06:23:21;15.30;99.90
26378;DHT22;14078;50.974;6.786;2023-05-07T06:25:48;15.40;99.90
26378;DHT22;14078;50.974;6.786;2023-05-07T06:28:15;15.40;99.90
26378;DHT22;14078;50.974;6.786;2023-05-07T06:30:41;15.50;99.90
26378;DHT22;14078;50.974;6.786;2023-05-07T06:33:09;15.60;99.90
26378;DHT22;14078;50.974;6.786;2023-05-07T06:35:36;15.60;99.90
26378;DHT22;14078;50.974;6.786;2023-05-07T06:38:02;15.70;99.90
26378;DHT22;14078;50.974;6.786;2023-05-07T06:40:29;15.70;99.90
26378;DHT22;14078;50.974;6.786;2023-05-07T06:42:55;15.80;99.90
26378;DHT22;14078;50.974;6.786;2023-05-07T06:45:22;15.90;99.90
26378;DHT22;14078;50.974;6.786;2023-05-07T06:47:49;15.90;99.90
26378;DHT22;14078;50.974;6.786;2023-05-07T06:50:17;15.90;99.90
26378;DHT22;14078;50.974;6.786;2023-05-07T06:52:43;16.00;99.90
26378;DHT22;14078;50.974;6.786;2023-05-07T06:55:10;16.00;99.90
26378;DHT22;14078;50.974;6.786;2023-05-07T06:57:37;16.00;99.90
26378;DHT22;14078;50.974;6.786;2023-05-07T07:00:04;16.10;99.90
26378;DHT22;14078;50.974;6.786;2023-05-07T07:02:32;16.20;99.90
26378;DHT22;14078;50.974;6.786;2023-05-07T07:04:58;16.30;99.90
26378;DHT22;14078;50.974;6.786;2023-05-07T07:07:26;16.50;99.90
26378;DHT22;14078;50.974;6.786;2023-05-07T07:09:53;16.50;99.90
26378;DHT22;14078;50.974;6.786;2023-05-07T07:12:20;16.70;99.90
26378;DHT22;14078;50.974;6.786;2023-05-07T07:14:47;16.80;99.90
26378;DHT22;14078;50.974;6.786;2023-05-07T07:17:14;16.90;99.90
26378;DHT22;14078;50.974;6.786;2023-05-07T07:19:40;17.10;99.90
26378;DHT22;14078;50.974;6.786;2023-05-07T07:22:07;17.20;99.90
26378;DHT22;14078;50.974;6.786;2023-05-07T07:24:35;17.30;99.90
26378;DHT22;14078;50.974;6.786;2023-05-07T07:27:01;17.40;99.90
26378;DHT22;14078;50.974;6.786;2023-05-07T07:29:28;17.40;99.90
26378;DHT22;14078;50.974;6.786;2023-05-07T07:31:55;17.50;99.90
26378;DHT22;14078;50.974;6.786;2023-05-07T07:34:22;17.40;99.90
26378;DHT22;14078;50.974;6.786;2023-05-07T07:36:48;17.60;99.90
26378;DHT22;14078;50.974;6.786;2023-05-07T07:39:15;17.80;99.90
26378;DHT22;14078;50.974;6.786;2023-05-07T07:41:43;18.00;99.90
26378;DHT22;14078;50.974;6.786;2023-05-07T07:44:09;18.20;99.90
26378;DHT22;14078;50.974;6.786;2023-05-07T07:46:38;18.30;99.90
26378;DHT22;14078;50.974;6.786;2023-05-07T07:49:04;18.30;99.90
26378;DHT22;14078;50.974;6.786;2023-05-07T07:51:31;18.50;99.90
26378;DHT22;14078;50.974;6.786;2023-05-07T07:53:57;18.50;99.90
26378;DHT22;14078;50.974;6.786;2023-05-07T07:56:24;18.60;99.90
26378;DHT22;14078;50.974;6.786;2023-05-07T07:58:52;18.70;99.90
26378;DHT22;14078;50.974;6.786;2023-05-07T08:01:18;18.70;99.90
26378;DHT22;14078;50.974;6.786;2023-05-07T08:03:45;18.80;99.90
26378;DHT22;14078;50.974;6.786;2023-05-07T08:06:11;18.90;99.90
26378;DHT22;14078;50.974;6.786;2023-05-07T08:08:38;18.90;99.90
26378;DHT22;14078;50.974;6.786;2023-05-07T08:11:04;18.70;99.90
26378;DHT22;14078;50.974;6.786;2023-05-07T08:13:31;18.60;99.90
26378;DHT22;14078;50.974;6.786;2023-05-07T08:15:59;18.70;99.90
26378;DHT22;14078;50.974;6.786;2023-05-07T08:18:25;18.60;99.90
26378;DHT22;14078;50.974;6.786;2023-05-07T08:20:54;18.60;99.90
26378;DHT22;14078;50.974;6.786;2023-05-07T08:23:20;18.60;99.90
26378;DHT22;14078;50.974;6.786;2023-05-07T08:25:47;18.70;99.90
26378;DHT22;14078;50.974;6.786;2023-05-07T08:28:14;18.80;99.90
26378;DHT22;14078;50.974;6.786;2023-05-07T08:30:40;18.90;99.90
26378;DHT22;14078;50.974;6.786;2023-05-07T08:33:09;19.00;99.90
26378;DHT22;14078;50.974;6.786;2023-05-07T08:35:36;19.10;99.90
26378;DHT22;14078;50.974;6.786;2023-05-07T08:38:02;19.30;99.90
26378;DHT22;14078;50.974;6.786;2023-05-07T08:40:29;19.30;99.90
26378;DHT22;14078;50.974;6.786;2023-05-07T08:42:57;19.40;99.90
26378;DHT22;14078;50.974;6.786;2023-05-07T08:45:24;19.40;99.90
26378;DHT22;14078;50.974;6.786;2023-05-07T08:47:54;19.40;99.90
26378;DHT22;14078;50.974;6.786;2023-05-07T08:50:25;19.50;99.90
26378;DHT22;14078;50.974;6.786;2023-05-07T08:52:52;19.60;99.90
26378;DHT22;14078;50.974;6.786;2023-05-07T08:55:19;19.70;99.90
26378;DHT22;14078;50.974;6.786;2023-05-07T08:57:46;19.80;99.90
26378;DHT22;14078;50.974;6.786;2023-05-07T09:00:13;20.10;99.90
26378;DHT22;14078;50.974;6.786;2023-05-07T09:02:40;20.30;99.90
26378;DHT22;14078;50.974;6.786;2023-05-07T09:05:07;20.40;99.90
26378;DHT22;14078;50.974;6.786;2023-05-07T09:07:35;20.20;98.50
26378;DHT22;14078;50.974;6.786;2023-05-07T09:10:02;20.00;99.90
26378;DHT22;14078;50.974;6.786;2023-05-07T09:12:29;20.00;99.90
26378;DHT22;14078;50.974;6.786;2023-05-07T09:14:55;19.90;99.90
26378;DHT22;14078;50.974;6.786;2023-05-07T09:17:22;19.90;99.90
26378;DHT22;14078;50.974;6.786;2023-05-07T09:19:48;20.00;99.90
26378;DHT22;14078;50.974;6.786;2023-05-07T09:22:15;20.00;99.90
26378;DHT22;14078;50.974;6.786;2023-05-07T09:24:46;19.90;99.90
26378;DHT22;14078;50.974;6.786;2023-05-07T09:27:13;20.00;99.90
26378;DHT22;14078;50.974;6.786;2023-05-07T09:29:40;20.00;99.90
26378;DHT22;14078;50.974;6.786;2023-05-07T09:32:07;20.00;99.90
26378;DHT22;14078;50.974;6.786;2023-05-07T09:34:33;19.90;99.90
26378;DHT22;14078;50.974;6.786;2023-05-07T09:37:00;20.00;99.90
26378;DHT22;14078;50.974;6.786;2023-05-07T09:39:28;20.20;99.90
26378;DHT22;14078;50.974;6.786;2023-05-07T09:42:05;20.30;99.90
26378;DHT22;14078;50.974;6.786;2023-05-07T09:44:32;20.30;94.50
26378;DHT22;14078;50.974;6.786;2023-05-07T09:47:00;20.20;84.50
26378;DHT22;14078;50.974;6.786;2023-05-07T09:49:28;20.30;77.70
26378;DHT22;14078;50.974;6.786;2023-05-07T09:51:56;20.50;93.30
26378;DHT22;14078;50.974;6.786;2023-05-07T09:54:22;20.50;99.90
26378;DHT22;14078;50.974;6.786;2023-05-07T09:56:49;20.60;99.90
26378;DHT22;14078;50.974;6.786;2023-05-07T09:59:17;20.60;91.60
26378;DHT22;14078;50.974;6.786;2023-05-07T10:01:45;20.60;88.70
26378;DHT22;14078;50.974;6.786;2023-05-07T10:04:11;20.70;82.50
26378;DHT22;14078;50.974;6.786;2023-05-07T10:06:38;20.80;73.30
26378;DHT22;14078;50.974;6.786;2023-05-07T10:09:05;20.80;92.70
26378;DHT22;14078;50.974;6.786;2023-05-07T10:11:31;21.00;95.30
26378;DHT22;14078;50.974;6.786;2023-05-07T10:13:58;21.20;44.20
26378;DHT22;14078;50.974;6.786;2023-05-07T10:16:28;21.20;16.20
26378;DHT22;14078;50.974;6.786;2023-05-07T10:18:57;21.20;40.40
26378;DHT22;14078;50.974;6.786;2023-05-07T10:21:24;21.20;1.00
26378;DHT22;14078;50.974;6.786;2023-05-07T10:23:53;21.30;99.90
26378;DHT22;14078;50.974;6.786;2023-05-07T10:26:22;21.30;99.90
26378;DHT22;14078;50.974;6.786;2023-05-07T10:28:51;21.40;99.90
26378;DHT22;14078;50.974;6.786;2023-05-07T10:31:30;21.50;99.90
26378;DHT22;14078;50.974;6.786;2023-05-07T10:34:02;21.60;1.00
26378;DHT22;14078;50.974;6.786;2023-05-07T10:36:34;21.90;99.90
26378;DHT22;14078;50.974;6.786;2023-05-07T10:39:01;22.00;99.90
26378;DHT22;14078;50.974;6.786;2023-05-07T10:41:27;22.10;99.90
26378;DHT22;14078;50.974;6.786;2023-05-07T10:43:54;22.00;99.90
26378;DHT22;14078;50.974;6.786;2023-05-07T10:46:21;21.90;99.90
26378;DHT22;14078;50.974;6.786;2023-05-07T10:49:08;21.80;99.90
26378;DHT22;14078;50.974;6.786;2023-05-07T10:51:36;21.90;97.10
26378;DHT22;14078;50.974;6.786;2023-05-07T10:54:22;21.90;99.90
26378;DHT22;14078;50.974;6.786;2023-05-07T10:56:49;21.80;99.90
26378;DHT22;14078;50.974;6.786;2023-05-07T10:59:33;21.80;99.90
26378;DHT22;14078;50.974;6.786;2023-05-07T11:02:03;21.90;99.90
26378;DHT22;14078;50.974;6.786;2023-05-07T11:04:32;22.00;1.00
26378;DHT22;14078;50.974;6.786;2023-05-07T11:10:03;22.00;99.90
26378;DHT22;14078;50.974;6.786;2023-05-07T11:12:49;22.00;1.00
26378;DHT22;14078;50.974;6.786;2023-05-07T11:17:58;22.00;1.00
26378;DHT22;14078;50.974;6.786;2023-05-07T11:23:07;21.80;99.90
26378;DHT22;14078;50.974;6.786;2023-05-07T11:25:34;21.80;1.00
26378;DHT22;14078;50.974;6.786;2023-05-07T11:28:04;21.90;99.90
26378;DHT22;14078;50.974;6.786;2023-05-07T11:30:31;21.80;1.00
26378;DHT22;14078;50.974;6.786;2023-05-07T11:32:57;21.80;1.00
26378;DHT22;14078;50.974;6.786;2023-05-07T11:35:24;21.80;1.00
26378;DHT22;14078;50.974;6.786;2023-05-07T11:37:57;21.80;1.00
26378;DHT22;14078;50.974;6.786;2023-05-07T11:40:25;21.90;99.90
26378;DHT22;14078;50.974;6.786;2023-05-07T11:42:51;22.00;1.00
26378;DHT22;14078;50.974;6.786;2023-05-07T11:45:22;22.00;99.90
26378;DHT22;14078;50.974;6.786;2023-05-07T11:47:49;22.10;1.00
26378;DHT22;14078;50.974;6.786;2023-05-07T11:50:16;22.20;99.90
26378;DHT22;14078;50.974;6.786;2023-05-07T11:52:49;22.20;99.90
26378;DHT22;14078;50.974;6.786;2023-05-07T11:55:17;22.10;99.90
26378;DHT22;14078;50.974;6.786;2023-05-07T11:57:45;22.20;99.90
26378;DHT22;14078;50.974;6.786;2023-05-07T12:00:15;22.30;1.00
26378;DHT22;14078;50.974;6.786;2023-05-07T12:02:42;22.50;99.90
26378;DHT22;14078;50.974;6.786;2023-05-07T12:05:08;22.50;99.90
26378;DHT22;14078;50.974;6.786;2023-05-07T12:07:35;22.50;99.90
26378;DHT22;14078;50.974;6.786;2023-05-07T12:10:04;22.60;99.90
26378;DHT22;14078;50.974;6.786;2023-05-07T12:12:30;22.90;99.90
26378;DHT22;14078;50.974;6.786;2023-05-07T12:14:58;23.00;99.90
26378;DHT22;14078;50.974;6.786;2023-05-07T12:17:25;23.00;99.90
26378;DHT22;14078;50.974;6.786;2023-05-07T12:19:51;23.00;99.90
26378;DHT22;14078;50.974;6.786;2023-05-07T12:22:18;23.10;99.90
26378;DHT22;14078;50.974;6.786;2023-05-07T12:24:45;23.20;79.30
26378;DHT22;14078;50.974;6.786;2023-05-07T12:27:12;23.30;1.00
26378;DHT22;14078;50.974;6.786;2023-05-07T12:29:39;23.40;1.00
26378;DHT22;14078;50.974;6.786;2023-05-07T12:32:13;23.80;1.00
26378;DHT22;14078;50.974;6.786;2023-05-07T12:34:41;24.00;1.00
26378;DHT22;14078;50.974;6.786;2023-05-07T12:37:07;24.00;1.00
26378;DHT22;14078;50.974;6.786;2023-05-07T12:39:34;23.90;1.00
26378;DHT22;14078;50.974;6.786;2023-05-07T12:42:01;24.00;1.00
26378;DHT22;14078;50.974;6.786;2023-05-07T12:44:28;24.10;1.00
26378;DHT22;14078;50.974;6.786;2023-05-07T12:46:55;23.80;1.00
26378;DHT22;14078;50.974;6.786;2023-05-07T12:49:23;23.40;1.00
26378;DHT22;14078;50.974;6.786;2023-05-07T12:51:51;23.00;1.00
26378;DHT22;14078;50.974;6.786;2023-05-07T12:54:27;22.80;1.00
26378;DHT22;14078;50.974;6.786;2023-05-07T12:56:59;22.70;1.00
26378;DHT22;14078;50.974;6.786;2023-05-07T12:59:30;22.60;31.80
26378;DHT22;14078;50.974;6.786;2023-05-07T13:01:57;22.50;99.90
26378;DHT22;14078;50.974;6.786;2023-05-07T13:04:25;22.60;99.90
26378;DHT22;14078;50.974;6.786;2023-05-07T13:06:52;22.90;1.00
26378;DHT22;14078;50.974;6.786;2023-05-07T13:09:18;23.20;1.00
26378;DHT22;14078;50.974;6.786;2023-05-07T13:11:45;23.40;1.00
26378;DHT22;14078;50.974;6.786;2023-05-07T13:14:11;23.40;1.00
26378;DHT22;14078;50.974;6.786;2023-05-07T13:16:38;23.40;1.00
26378;DHT22;14078;50.974;6.786;2023-05-07T13:19:04;23.20;1.00
26378;DHT22;14078;50.974;6.786;2023-05-07T13:21:32;23.10;1.00
26378;DHT22;14078;50.974;6.786;2023-05-07T13:23:59;22.90;1.00
26378;DHT22;14078;50.974;6.786;2023-05-07T13:26:25;22.70;1.00
26378;DHT22;14078;50.974;6.786;2023-05-07T13:28:52;22.70;1.00
26378;DHT22;14078;50.974;6.786;2023-05-07T13:31:18;22.60;1.00
26378;DHT22;14078;50.974;6.786;2023-05-07T13:33:46;22.60;1.00
26378;DHT22;14078;50.974;6.786;2023-05-07T13:36:12;22.50;95.60
26378;DHT22;14078;50.974;6.786;2023-05-07T13:38:40;22.60;55.60
26378;DHT22;14078;50.974;6.786;2023-05-07T13:41:07;22.50;1.00
26378;DHT22;14078;50.974;6.786;2023-05-07T13:43:33;22.60;1.00
26378;DHT22;14078;50.974;6.786;2023-05-07T13:46:00;22.40;1.00
26378;DHT22;14078;50.974;6.786;2023-05-07T13:48:26;22.30;59.20
26378;DHT22;14078;50.974;6.786;2023-05-07T13:50:53;22.10;99.90
26378;DHT22;14078;50.974;6.786;2023-05-07T13:53:20;21.90;99.90
26378;DHT22;14078;50.974;6.786;2023-05-07T13:55:48;21.70;1.00
26378;DHT22;14078;50.974;6.786;2023-05-07T13:58:14;21.40;99.90
26378;DHT22;14078;50.974;6.786;2023-05-07T14:00:41;21.00;1.00
26378;DHT22;14078;50.974;6.786;2023-05-07T14:03:07;20.70;1.00
26378;DHT22;14078;50.974;6.786;2023-05-07T14:05:34;20.40;1.00
26378;DHT22;14078;50.974;6.786;2023-05-07T14:08:01;20.10;1.00
26378;DHT22;14078;50.974;6.786;2023-05-07T14:10:28;19.80;34.10
26378;DHT22;14078;50.974;6.786;2023-05-07T14:12:57;19.60;92.80
26378;DHT22;14078;50.974;6.786;2023-05-07T14:15:23;19.50;99.90
26378;DHT22;14078;50.974;6.786;2023-05-07T14:17:50;19.50;99.90
26378;DHT22;14078;50.974;6.786;2023-05-07T14:20:16;19.50;99.90
26378;DHT22;14078;50.974;6.786;2023-05-07T14:22:43;19.60;99.90
26378;DHT22;14078;50.974;6.786;2023-05-07T14:25:10;19.70;99.90
26378;DHT22;14078;50.974;6.786;2023-05-07T14:27:36;19.80;99.90
26378;DHT22;14078;50.974;6.786;2023-05-07T14:30:05;19.80;4.30
26378;DHT22;14078;50.974;6.786;2023-05-07T14:32:32;19.80;1.00
26378;DHT22;14078;50.974;6.786;2023-05-07T14:34:58;19.80;1.00
26378;DHT22;14078;50.974;6.786;2023-05-07T14:37:25;19.80;1.00
26378;DHT22;14078;50.974;6.786;2023-05-07T14:39:51;19.80;1.00
26378;DHT22;14078;50.974;6.786;2023-05-07T14:42:18;19.80;99.90
26378;DHT22;14078;50.974;6.786;2023-05-07T14:44:44;19.80;99.90
26378;DHT22;14078;50.974;6.786;2023-05-07T14:47:13;19.70;1.00
26378;DHT22;14078;50.974;6.786;2023-05-07T14:49:41;19.80;99.90
26378;DHT22;14078;50.974;6.786;2023-05-07T14:52:07;19.70;1.00
26378;DHT22;14078;50.974;6.786;2023-05-07T14:54:35;19.60;99.90
26378;DHT22;14078;50.974;6.786;2023-05-07T14:57:02;19.50;99.90
26378;DHT22;14078;50.974;6.786;2023-05-07T14:59:28;19.50;1.00
26378;DHT22;14078;50.974;6.786;2023-05-07T15:01:55;19.40;99.90
26378;DHT22;14078;50.974;6.786;2023-05-07T15:04:23;19.50;99.90
26378;DHT22;14078;50.974;6.786;2023-05-07T15:06:49;19.50;1.00
26378;DHT22;14078;50.974;6.786;2023-05-07T15:09:17;19.70;99.90
26378;DHT22;14078;50.974;6.786;2023-05-07T15:11:43;19.80;99.90
26378;DHT22;14078;50.974;6.786;2023-05-07T15:14:10;20.10;1.00
26378;DHT22;14078;50.974;6.786;2023-05-07T15:16:36;20.20;99.90
26378;DHT22;14078;50.974;6.786;2023-05-07T15:19:03;20.30;47.60
26378;DHT22;14078;50.974;6.786;2023-05-07T15:21:31;20.40;99.90
26378;DHT22;14078;50.974;6.786;2023-05-07T15:23:59;20.60;1.00
26378;DHT22;14078;50.974;6.786;2023-05-07T15:26:26;20.90;1.00
26378;DHT22;14078;50.974;6.786;2023-05-07T15:28:52;21.00;99.90
26378;DHT22;14078;50.974;6.786;2023-05-07T15:31:21;21.10;99.90
26378;DHT22;14078;50.974;6.786;2023-05-07T15:33:48;21.30;85.50
26378;DHT22;14078;50.974;6.786;2023-05-07T15:36:17;21.30;47.60
26378;DHT22;14078;50.974;6.786;2023-05-07T15:38:44;21.20;99.90
26378;DHT22;14078;50.974;6.786;2023-05-07T15:41:11;21.20;21.10